Startpagina
METAR-TAF:

METAR-TAF

Vliegvelden :

Mont-De-Marsan, Frankrijk

breedte: 43-55N, lengte: 000-30W, hoogte: 62 m

Actueel weer

Dit bericht is 37 minuten geleden gemaakt, om 19:00 UTC
Wind 3 kt uit het oosten
Temperatuur 6°C
Vochtigheid 87%
Druk 1019 hPa
Zicht 10 km of meer
geen wolken onder 1500 m en geen cumulonimbus

METAR: LFBM 241900Z AUTO 09003KT CAVOK 06/04 Q1019 NOSIG

Tijdstip: 20:37 (19:37 UTC)

Verwachting

Dit bericht is 5 uur en het 37 minuten geleden gemaakt, om 14:00 UTC
Verwachting geldig van 24 om 15 UTC tot 25 om 15 UTC
Wind 5 kt uit het oosten
Zicht 10 km of meer
geen wolken onder 1500 m en geen cumulonimbus
Wijzigt naar
van 24 om 21 UTC tot 24 om 24 UTC
Zicht: 3000 m
Geheel bewolkt op 300 ft
nevel
Wijzigt naar
van 25 om 08 UTC tot 25 om 11 UTC
Zicht 10 km of meer
Gebroken wolken op 1000 ft

TAF: LFBM 241400Z 2415/2515 09005KT CAVOK BECMG 2421/2424 3000 BR OVC003 BECMG 2508/2511 9999 NSW BKN010

Waarnemingen en weersverwachtingen van meer dan 4000 vliegvelden (METAR en TAF).

De beschikbare stations zijn de gele en rode punten op de kaart.

Ga met uw muis naar het station om de naam te zien.

Klik dan om waarnemingen en weersverwachtingen te zien.

kaart wijzigen: klik op de groene knoppen met een zwart kruis om in te zoomen, op de groene knop met een streepje om uit te zoomen of op de groene pijlen voor aangrenzende kaarten.


METAR-TAF: